CDT,Max TemperatureF,Mean TemperatureF,Min TemperatureF,Max Dew PointF,MeanDew PointF,Min DewpointF,Max Humidity, Mean Humidity, Min Humidity, Max Sea Level PressureIn, Mean Sea Level PressureIn, Min Sea Level PressureIn, Max VisibilityMiles, Mean VisibilityMiles, Min VisibilityMiles, Max Wind SpeedMPH, Mean Wind SpeedMPH, Max Gust SpeedMPH,PrecipitationIn, CloudCover, Events, WindDirDegrees
2013-3-1,42,33,24,27,24,19,86,68,53,30.37,30.29,30.22,9,6,2,18,8,26,0.00,4,,350
2013-3-2,48,36,23,26,22,19,85,60,36,30.43,30.33,30.18,10,8,5,9,7,,0.00,0,,326
2013-3-3,71,53,35,32,28,24,65,41,23,30.15,29.87,29.55,10,10,10,31,17,41,0.00,0,,176
2013-3-4,66,54,42,40,34,26,70,49,30,30.08,29.70,29.47,10,10,8,34,20,47,0.00,2,,332
2013-3-5,48,40,32,34,19,14,81,47,30,30.42,30.33,30.12,10,10,10,24,16,34,0.00,1,Rain,339
2013-3-6,52,40,28,19,18,14,69,43,23,30.48,30.34,30.18,10,10,10,13,7,,0.00,0,,118
2013-3-7,71,56,41,27,22,17,40,28,17,30.17,30.08,30.00,10,10,10,25,16,36,0.00,0,,164
2013-3-8,62,58,53,52,43,28,86,64,35,30.08,29.99,29.88,10,8,4,29,20,40,0.00,4,,162
2013-3-9,61,57,53,57,54,46,90,86,75,29.87,29.74,29.62,10,5,0,25,19,32,0.19,7,Fog-Rain-Thunderstorm,171
2013-3-10,55,45,35,36,30,24,87,72,44,30.10,29.88,29.66,10,8,2,22,15,34,0.00,7,Rain,321
2013-3-11,55,40,27,27,20,15,72,48,27,30.09,30.04,29.99,10,10,9,16,8,21,0.00,1,,321
2013-3-12,60,47,35,35,26,19,65,44,30,30.36,30.22,30.02,10,10,10,13,6,23,0.00,0,,13
2013-3-13,63,46,30,32,26,19,72,46,27,30.47,30.38,30.29,10,10,10,15,5,18,0.00,1,,156
2013-3-14,77,61,45,41,35,28,55,41,27,30.30,30.19,30.10,10,10,10,18,14,,0.00,0,,198
2013-3-15,82,68,55,43,41,39,59,40,25,30.09,29.90,29.75,10,10,10,22,15,28,0.00,0,,201
2013-3-16,78,64,50,45,42,34,54,44,32,29.82,29.73,29.67,10,10,8,22,16,29,0.00,0,,123
2013-3-17,46,44,39,37,35,31,87,76,58,29.86,29.80,29.69,8,5,2,23,13,26,0.00,6,,4
2013-3-18,61,50,39,38,33,21,93,66,23,30.05,29.89,29.66,10,6,2,20,12,25,0.00,4,,11
2013-3-19,61,52,43,33,28,20,62,42,25,30.24,30.10,29.99,10,10,8,15,8,21,0.00,0,,101
2013-3-20,57,44,32,30,26,24,79,50,30,30.40,30.24,30.01,10,10,8,16,9,20,0.00,0,,48
2013-3-21,57,50,41,38,30,24,70,50,39,29.98,29.74,29.57,10,9,5,28,18,39,0.00,3,,127
2013-3-22,46,41,37,35,34,32,86,75,65,29.92,29.86,29.71,10,5,2,21,14,25,0.00,8,Rain,31
2013-3-23,44,40,35,37,36,32,93,88,71,29.93,29.83,29.71,9,3,1,21,11,26,0.00,8,Rain-Snow,41
2013-3-24,43,36,28,31,21,15,89,61,35,30.25,30.10,29.91,10,9,4,28,20,39,0.00,4,,333
2013-3-25,44,36,27,18,14,11,66,44,26,30.43,30.35,30.25,10,10,9,23,13,32,0.00,0,,334
2013-3-26,54,36,19,20,16,12,74,45,26,30.49,30.38,30.22,10,10,8,18,5,,0.00,0,,206
2013-3-27,70,56,42,35,28,20,44,36,26,30.20,30.11,30.03,10,10,8,29,21,37,0.00,0,,176
2013-3-28,73,60,48,51,44,35,71,54,41,30.13,30.07,30.00,10,10,9,21,17,28,0.00,2,,165
2013-3-29,73,65,57,57,55,51,87,70,53,30.12,30.05,29.98,10,8,2,22,14,28,0.15,4,Rain-Thunderstorm,161
2013-3-30,80,67,55,56,53,45,94,67,31,30.01,29.93,29.83,10,8,2,16,10,,0.00,2,Thunderstorm,181
2013-3-31,70,60,51,54,46,36,88,66,31,30.02,29.97,29.88,10,8,0,36,12,44,0.50,3,Fog-Rain-Thunderstorm,10